Terminal Aerodrome Forecast
Issued by NWS

Home | Current Version | Previous Version | Text Only | Print | Product List | Glossary On
Versions: 1 2 3 4 5 6 7 8 9 10 11 12 13 14 15 16 17 18
000
FTUS41 KCAR 251730
TAFPQI
TAF
KPQI 251730Z 2518/2618 15006KT P6SM BKN180
     FM260900 05010KT P6SM VCSH OVC045
     FM261100 05012KT 6SM -SHRA BKN025 OVC040
     FM261400 05012G18KT 3SM RA BR OVC008=

USA.gov is the U.S. government's official web portal to all federal, state and local government web resources and services.